Time;durP1;ratioP1;P1;durP2;ratioP2;P2;SDS_P1;SDS_P2;PMS_P1;PMS_P2;Temp;Humidity;BMP_temperature;BMP_pressure;BME280_temperature;BME280_humidity;BME280_pressure;Samples;Min_cycle;Max_cycle;Signal;HPM_P1;HPM_P2
2023/07/14 00:02:33;;;;;;;0.98;0.98;;;21.00;1.00;;;;;;5185862;28;20029;-66
2023/07/14 00:05:05;;;;;;;1.17;1.10;;;21.20;1.00;;;;;;5206119;28;20029;-65
2023/07/14 00:07:39;;;;;;;1.10;1.00;;;21.10;1.00;;;;;;5205411;28;20614;-66
2023/07/14 00:10:17;;;;;;;1.58;1.20;;;21.10;1.00;;;;;;5202399;28;20029;-66
2023/07/14 00:12:51;;;;;;;1.02;0.95;;;21.10;1.00;;;;;;5202318;28;20037;-65
2023/07/14 00:15:25;;;;;;;2.13;1.23;;;21.00;1.00;;;;;;5172059;28;20497;-65
2023/07/14 00:18:14;;;;;;;1.30;1.00;;;21.00;1.00;;;;;;5189472;28;20027;-64
2023/07/14 00:20:48;;;;;;;2.05;1.10;;;21.10;1.00;;;;;;5223938;28;20028;-67
2023/07/14 00:23:22;;;;;;;;;;;21.00;1.00;;;;;;5183892;28;20045;-64
2023/07/14 00:25:54;;;;;;;1.45;1.00;;;21.00;1.00;;;;;;5153271;28;19913;-64
2023/07/14 00:28:25;;;;;;;2.38;0.98;;;21.00;1.00;;;;;;5187641;28;20582;-64
2023/07/14 00:30:56;;;;;;;1.17;1.00;;;21.00;1.00;;;;;;5210195;28;20034;-66
2023/07/14 00:33:30;;;;;;;0.93;0.82;;;20.90;1.00;;;;;;5211672;28;20031;-66
2023/07/14 00:36:06;;;;;;;5.82;1.30;;;20.80;1.00;;;;;;5190611;28;20071;-67
2023/07/14 00:38:38;;;;;;;1.35;1.00;;;20.80;1.00;;;;;;5186298;28;20262;-65
2023/07/14 00:41:22;;;;;;;1.27;1.17;;;20.80;1.00;;;;;;5106986;28;20040;-62
2023/07/14 00:43:55;;;;;;;1.55;1.15;;;20.80;1.00;;;;;;5223733;28;20043;-66
2023/07/14 00:46:33;;;;;;;2.80;1.23;;;20.80;1.00;;;;;;5204426;28;20033;-63
2023/07/14 00:49:13;;;;;;;3.70;1.00;;;20.70;1.00;;;;;;5205309;28;20032;-63
2023/07/14 00:51:46;;;;;;;1.75;1.38;;;20.60;1.00;;;;;;5222794;28;20580;-65
2023/07/14 00:54:28;;;;;;;2.05;1.23;;;20.60;1.00;;;;;;5188992;28;20049;-67
2023/07/14 00:57:02;;;;;;;1.17;1.08;;;20.50;1.00;;;;;;5204157;28;20236;-64
2023/07/14 00:59:37;;;;;;;1.25;1.15;;;20.50;1.00;;;;;;5190256;28;20029;-65
2023/07/14 01:02:13;;;;;;;5.38;1.45;;;20.50;1.00;;;;;;5246709;22;20209;-72
2023/07/14 01:05:03;;;;;;;1.27;1.10;;;20.60;1.00;;;;;;5200095;28;20164;-73
2023/07/14 01:07:39;;;;;;;3.55;1.25;;;20.60;1.00;;;;;;5202230;28;20044;-73
2023/07/14 01:10:16;;;;;;;0.95;0.85;;;20.60;1.00;;;;;;5206763;28;20021;-71
2023/07/14 01:12:55;;;;;;;1.35;1.23;;;20.40;1.00;;;;;;5221703;28;20047;-72
2023/07/14 01:15:26;;;;;;;1.90;1.63;;;20.40;1.00;;;;;;5201448;28;20169;-71
2023/07/14 01:17:58;;;;;;;0.93;0.90;;;20.50;1.00;;;;;;5203566;28;20322;-72
2023/07/14 01:20:30;;;;;;;2.78;1.10;;;20.40;9.60;;;;;;5222082;28;20318;-72
2023/07/14 01:23:27;;;;;;;1.77;1.38;;;20.40;57.90;;;;;;5204548;28;20033;-72
2023/07/14 01:26:41;;;;;;;1.50;1.40;;;20.40;1.00;;;;;;5220163;28;20029;-73
2023/07/14 01:29:13;;;;;;;1.50;1.17;;;20.20;31.80;;;;;;5207474;28;20033;-73
2023/07/14 01:31:47;;;;;;;1.67;1.58;;;20.20;1.00;;;;;;5219003;28;20248;-73
2023/07/14 01:34:19;;;;;;;1.40;1.30;;;20.20;1.00;;;;;;5221226;28;20322;-72
2023/07/14 01:36:58;;;;;;;3.08;1.23;;;20.10;1.00;;;;;;5220907;28;20029;-72
2023/07/14 01:39:30;;;;;;;2.53;1.50;;;20.10;5.30;;;;;;5221989;28;20032;-73
2023/07/14 01:42:01;;;;;;;0.90;0.90;;;20.10;99.90;;;;;;5219950;28;20478;-72
2023/07/14 01:44:36;;;;;;;2.50;1.45;;;20.10;99.90;;;;;;5216052;28;20051;-73
2023/07/14 01:47:14;;;;;;;3.47;1.30;;;20.00;49.90;;;;;;5213504;28;20221;-72
2023/07/14 01:49:51;;;;;;;1.27;1.00;;;20.10;99.90;;;;;;5223719;28;20023;-72
2023/07/14 01:52:29;;;;;;;1.52;1.20;;;20.00;99.90;;;;;;5217992;28;20175;-71
2023/07/14 01:55:10;;;;;;;1.77;0.95;;;20.10;1.00;;;;;;5222132;28;20051;-72
2023/07/14 01:57:42;;;;;;;2.42;1.20;;;20.10;16.20;;;;;;5196727;28;20033;-73
2023/07/14 02:00:17;;;;;;;1.55;1.20;;;20.00;99.90;;;;;;5217789;28;20032;-73
2023/07/14 02:02:53;;;;;;;1.60;1.50;;;20.00;1.00;;;;;;5239058;28;20260;-72
2023/07/14 02:05:34;;;;;;;1.20;1.15;;;20.00;98.20;;;;;;5222819;28;20089;-72
2023/07/14 02:08:14;;;;;;;2.53;1.88;;;20.00;99.90;;;;;;5219676;28;20302;-72
2023/07/14 02:10:45;;;;;;;1.98;1.30;;;20.00;99.90;;;;;;5205201;28;20031;-73
2023/07/14 02:13:21;;;;;;;1.25;1.15;;;20.00;99.90;;;;;;5192017;28;20258;-73
2023/07/14 02:15:56;;;;;;;1.42;1.33;;;20.00;99.90;;;;;;5238609;28;20034;-73
2023/07/14 02:18:29;;;;;;;1.27;1.02;;;20.00;99.90;;;;;;5236690;28;20321;-72
2023/07/14 02:21:03;;;;;;;1.20;1.10;;;19.90;99.90;;;;;;5239058;28;20041;-72
2023/07/14 02:23:39;;;;;;;1.65;1.48;;;20.00;99.90;;;;;;5241681;28;20032;-73
2023/07/14 02:26:13;;;;;;;1.88;1.45;;;19.90;99.90;;;;;;5223169;28;20036;-71
2023/07/14 02:28:44;;;;;;;3.50;1.13;;;20.00;1.00;;;;;;5241529;28;20025;-73
2023/07/14 02:31:29;;;;;;;1.67;1.23;;;20.00;1.00;;;;;;5243661;28;20118;-73
2023/07/14 02:34:00;;;;;;;5.45;1.40;;;20.00;1.00;;;;;;5219154;28;20029;-73
2023/07/14 02:36:55;;;;;;;1.42;1.33;;;20.10;1.00;;;;;;5202832;28;20047;-72
2023/07/14 02:39:35;;;;;;;1.05;1.00;;;20.00;1.00;;;;;;5221007;28;20249;-75
2023/07/14 02:42:07;;;;;;;1.23;1.13;;;20.00;1.00;;;;;;5203215;28;20137;-75
2023/07/14 02:44:38;;;;;;;1.63;1.38;;;20.00;1.00;;;;;;5220515;28;20198;-72
2023/07/14 02:47:17;;;;;;;1.38;1.25;;;20.00;1.00;;;;;;5232749;28;20046;-72
2023/07/14 02:49:54;;;;;;;1.30;1.20;;;20.00;1.00;;;;;;5241519;28;20024;-71
2023/07/14 02:52:28;;;;;;;2.40;1.30;;;20.00;1.00;;;;;;5231874;28;20461;-74
2023/07/14 02:55:00;;;;;;;1.25;1.15;;;20.00;1.00;;;;;;5228378;28;20279;-74
2023/07/14 02:57:36;;;;;;;1.30;1.20;;;20.00;1.00;;;;;;5245858;28;20083;-73
2023/07/14 03:00:08;;;;;;;1.60;1.50;;;20.00;1.00;;;;;;5220775;28;20051;-74
2023/07/14 03:02:40;;;;;;;1.23;1.13;;;20.00;1.00;;;;;;5246227;28;20363;-73
2023/07/14 03:05:14;;;;;;;1.20;1.10;;;19.90;1.00;;;;;;5245427;28;20108;-74
2023/07/14 03:07:45;;;;;;;2.17;1.42;;;19.80;1.00;;;;;;5246385;28;20055;-73
2023/07/14 03:10:16;;;;;;;1.20;1.10;;;19.80;1.00;;;;;;5233932;28;20032;-74
2023/07/14 03:12:47;;;;;;;1.63;1.30;;;19.80;1.00;;;;;;5248788;28;20367;-72
2023/07/14 03:15:24;;;;;;;2.90;1.38;;;19.80;1.00;;;;;;5247466;28;20033;-74
2023/07/14 03:17:55;;;;;;;2.25;1.65;;;19.80;1.00;;;;;;5246258;28;20047;-72
2023/07/14 03:20:37;;;;;;;1.45;1.33;;;19.70;1.00;;;;;;5243994;28;20042;-74
2023/07/14 03:23:08;;;;;;;1.52;1.20;;;19.60;1.00;;;;;;5227679;28;20032;-73
2023/07/14 03:25:42;;;;;;;2.38;1.25;;;19.60;1.00;;;;;;5246176;28;20032;-72
2023/07/14 03:28:13;;;;;;;1.40;1.30;;;19.60;1.00;;;;;;5240390;28;20031;-75
2023/07/14 03:30:49;;;;;;;2.22;1.08;;;19.60;1.00;;;;;;5212161;28;20042;-73
2023/07/14 03:33:26;;;;;;;2.05;1.20;;;19.70;1.00;;;;;;5249379;28;20225;-75
2023/07/14 03:36:02;;;;;;;2.17;1.38;;;19.80;1.00;;;;;;5226723;28;20037;-73
2023/07/14 03:38:44;;;;;;;2.17;1.40;;;19.80;1.00;;;;;;5211590;28;20043;-74
2023/07/14 03:41:16;;;;;;;2.15;1.40;;;19.80;1.00;;;;;;5210546;28;20037;-72
2023/07/14 03:43:52;;;;;;;2.15;1.17;;;19.80;1.00;;;;;;5216129;28;20341;-72
2023/07/14 03:46:23;;;;;;;1.35;1.25;;;19.80;1.00;;;;;;5222111;28;20042;-72
2023/07/14 03:48:55;;;;;;;1.42;1.15;;;19.80;1.00;;;;;;5206526;28;20053;-72
2023/07/14 03:51:30;;;;;;;1.10;1.00;;;19.80;1.00;;;;;;5210486;28;20048;-73
2023/07/14 03:54:01;;;;;;;1.40;1.13;;;19.80;1.00;;;;;;5256043;28;20035;-73
2023/07/14 03:56:36;;;;;;;1.33;1.23;;;19.90;1.00;;;;;;5249577;28;20050;-72
2023/07/14 03:59:07;;;;;;;;;;;19.90;1.00;;;;;;5243480;28;20422;-73
2023/07/14 04:01:38;;;;;;;1.13;1.08;;;19.90;1.00;;;;;;5243306;28;20221;-71
2023/07/14 04:04:09;;;;;;;1.67;1.13;;;20.00;1.00;;;;;;5243268;28;20037;-72
2023/07/14 04:06:43;;;;;;;1.90;1.40;;;20.10;1.00;;;;;;5225596;28;20032;-72
2023/07/14 04:09:17;;;;;;;1.20;1.10;;;20.10;1.00;;;;;;5210485;28;20039;-75
2023/07/14 04:11:51;;;;;;;1.17;1.08;;;20.20;1.00;;;;;;5227374;28;20047;-72
2023/07/14 04:14:23;;;;;;;1.30;1.20;;;20.20;1.00;;;;;;5242782;28;20301;-71
2023/07/14 04:16:55;;;;;;;1.30;1.20;;;20.30;1.00;;;;;;5221929;28;20106;-72
2023/07/14 04:19:26;;;;;;;0.80;0.80;;;20.40;1.00;;;;;;5244203;28;20020;-73
2023/07/14 04:22:01;;;;;;;2.40;1.35;;;20.50;1.00;;;;;;5225999;28;20322;-72
2023/07/14 04:24:32;;;;;;;0.90;0.90;;;20.60;1.00;;;;;;5244823;28;20032;-72
2023/07/14 04:27:07;;;;;;;1.42;0.90;;;20.60;1.00;;;;;;5226425;28;20040;-72
2023/07/14 04:29:39;;;;;;;;;;;20.70;1.00;;;;;;5226448;28;20102;-72
2023/07/14 04:32:12;;;;;;;1.30;1.20;;;20.80;1.00;;;;;;5247094;28;19901;-73
2023/07/14 04:34:44;;;;;;;1.50;1.15;;;20.90;1.00;;;;;;5226028;28;20042;-71
2023/07/14 04:37:16;;;;;;;1.77;1.55;;;21.00;1.00;;;;;;5243497;28;20033;-72
2023/07/14 04:39:52;;;;;;;1.20;1.05;;;21.00;1.00;;;;;;5225884;28;20284;-73
2023/07/14 04:42:23;;;;;;;5.20;1.33;;;21.10;1.00;;;;;;5244613;28;20047;-73
2023/07/14 04:44:54;;;;;;;2.33;1.08;;;21.20;1.00;;;;;;5243795;28;20028;-73
2023/07/14 04:47:26;;;;;;;1.48;1.20;;;21.20;1.00;;;;;;5206660;28;20240;-73
2023/07/14 04:49:58;;;;;;;1.52;1.10;;;21.30;1.00;;;;;;5225221;28;20320;-71
2023/07/14 04:52:34;;;;;;;1.15;0.88;;;21.40;1.00;;;;;;5208495;28;20043;-71
2023/07/14 04:55:08;;;;;;;1.30;1.20;;;21.50;1.00;;;;;;5222415;28;20337;-72
2023/07/14 04:57:42;;;;;;;1.10;1.08;;;21.60;1.00;;;;;;5224188;28;20066;-72
2023/07/14 05:00:15;;;;;;;3.05;1.40;;;21.70;1.00;;;;;;5240329;28;20248;-72
2023/07/14 05:02:49;;;;;;;2.75;1.10;;;21.80;1.00;;;;;;5245590;28;20355;-72
2023/07/14 05:05:22;;;;;;;;;;;21.80;1.00;;;;;;5242846;28;20034;-71
2023/07/14 05:07:55;;;;;;;2.47;1.00;;;21.90;1.00;;;;;;5209121;28;19916;-72
2023/07/14 05:10:28;;;;;;;1.73;1.13;;;22.20;1.00;;;;;;5225842;28;20039;-73
2023/07/14 05:13:00;;;;;;;0.85;0.85;;;22.20;1.00;;;;;;5225690;28;20040;-73
2023/07/14 05:15:36;;;;;;;1.40;1.00;;;22.20;1.00;;;;;;5240010;28;20453;-72
2023/07/14 05:18:08;;;;;;;1.60;0.82;;;22.20;1.00;;;;;;5224974;28;20040;-71
2023/07/14 05:20:43;;;;;;;1.27;0.85;;;22.20;1.00;;;;;;5225243;28;20036;-70
2023/07/14 05:23:18;;;;;;;1.13;0.98;;;22.40;1.00;;;;;;5225457;28;20036;-71
2023/07/14 05:25:52;;;;;;;2.38;1.17;;;22.50;1.00;;;;;;5207894;28;20218;-72
2023/07/14 05:28:26;;;;;;;0.90;0.90;;;22.60;1.00;;;;;;5225538;28;20032;-69
2023/07/14 05:31:01;;;;;;;0.77;0.77;;;22.80;1.00;;;;;;5224736;28;20088;-70
2023/07/14 05:33:32;;;;;;;1.08;1.02;;;22.60;99.90;;;;;;5211354;28;20040;-71
2023/07/14 05:36:03;;;;;;;1.15;1.02;;;22.80;99.90;;;;;;5241969;28;20040;-70
2023/07/14 05:38:35;;;;;;;2.13;0.93;;;22.90;1.00;;;;;;5220872;28;20032;-71
2023/07/14 05:41:09;;;;;;;1.85;1.25;;;22.90;99.90;;;;;;5223057;28;20025;-71
2023/07/14 05:43:41;;;;;;;1.75;1.10;;;22.90;1.00;;;;;;5203725;28;20062;-71
2023/07/14 05:46:14;;;;;;;1.55;1.00;;;23.10;1.00;;;;;;5218789;28;20020;-71
2023/07/14 05:48:47;;;;;;;1.27;1.05;;;23.00;1.00;;;;;;5221351;28;20028;-71
2023/07/14 05:51:19;;;;;;;1.13;0.90;;;23.00;99.90;;;;;;5196484;28;20185;-71
2023/07/14 05:53:55;;;;;;;1.45;1.00;;;23.20;1.00;;;;;;5242579;28;20302;-71
2023/07/14 05:56:28;;;;;;;2.33;1.10;;;23.10;99.90;;;;;;5242545;28;20036;-71
2023/07/14 05:58:59;;;;;;;2.17;0.98;;;23.20;99.90;;;;;;5207618;28;20029;-71
2023/07/14 06:01:33;;;;;;;1.75;1.20;;;23.30;99.90;;;;;;5204183;28;20048;-71
2023/07/14 06:04:07;;;;;;;1.92;0.90;;;23.60;99.90;;;;;;5224057;28;20059;-70
2023/07/14 06:06:38;;;;;;;4.07;1.20;;;23.60;99.90;;;;;;5223839;28;20054;-70
2023/07/14 06:09:16;;;;;;;1.08;0.98;;;23.80;99.90;;;;;;5224275;28;20048;-70
2023/07/14 06:11:47;;;;;;;1.73;0.98;;;23.60;93.90;;;;;;5219243;28;20043;-71
2023/07/14 06:14:19;;;;;;;2.72;1.00;;;23.60;99.90;;;;;;5206680;28;20043;-70
2023/07/14 06:16:56;;;;;;;1.95;1.05;;;23.80;1.00;;;;;;5236875;28;20278;-70
2023/07/14 06:19:30;;;;;;;1.33;0.93;;;23.70;1.00;;;;;;5207252;28;20040;-70
2023/07/14 06:22:06;;;;;;;2.05;1.13;;;23.70;1.00;;;;;;5240947;28;20244;-70
2023/07/14 06:24:40;;;;;;;1.98;1.13;;;24.00;1.00;;;;;;5223550;28;20040;-70
2023/07/14 06:27:12;;;;;;;1.40;1.30;;;23.90;1.00;;;;;;5224236;28;20050;-70
2023/07/14 06:29:45;;;;;;;1.60;0.98;;;23.90;99.90;;;;;;5241371;28;20319;-71
2023/07/14 06:32:17;;;;;;;2.00;1.30;;;24.10;1.00;;;;;;5197856;28;20036;-71
2023/07/14 06:34:48;;;;;;;3.17;1.00;;;24.20;1.00;;;;;;5242560;28;20274;-70
2023/07/14 06:37:24;;;;;;;1.20;1.10;;;24.40;3.60;;;;;;5207621;28;20048;-71
2023/07/14 06:39:56;;;;;;;1.38;1.08;;;24.40;1.00;;;;;;5226623;28;20050;-71
2023/07/14 06:42:31;;;;;;;1.10;1.00;;;24.40;1.00;;;;;;5207766;28;20041;-71
2023/07/14 06:45:09;;;;;;;1.15;0.90;;;24.60;1.00;;;;;;5207800;28;20357;-72
2023/07/14 06:47:43;;;;;;;1.10;1.00;;;24.90;1.00;;;;;;5207707;28;20139;-71
2023/07/14 06:50:14;;;;;;;0.82;0.80;;;25.30;1.00;;;;;;5243988;28;20024;-71
2023/07/14 06:52:51;;;;;;;1.25;1.15;;;25.50;1.00;;;;;;5210853;28;20382;-71
2023/07/14 06:55:25;;;;;;;1.45;0.95;;;25.30;1.00;;;;;;5226834;28;20051;-70
2023/07/14 06:57:56;;;;;;;1.20;0.98;;;25.30;99.90;;;;;;5227024;28;20040;-71
2023/07/14 07:00:33;;;;;;;1.30;1.10;;;25.20;99.90;;;;;;5241775;28;20024;-71
2023/07/14 07:03:07;;;;;;;1.15;1.05;;;25.00;99.90;;;;;;5249990;28;20024;-71
2023/07/14 07:05:46;;;;;;;1.67;1.05;;;25.20;1.00;;;;;;5230001;28;20241;-71
2023/07/14 07:08:20;;;;;;;1.35;1.20;;;24.80;1.00;;;;;;5227530;28;20227;-71
2023/07/14 07:10:57;;;;;;;1.20;1.10;;;24.70;99.90;;;;;;5225281;28;20040;-71
2023/07/14 07:13:31;;;;;;;1.63;1.10;;;24.70;1.00;;;;;;5204696;28;20241;-71
2023/07/14 07:16:06;;;;;;;1.27;1.10;;;24.70;1.00;;;;;;5211615;28;20233;-71
2023/07/14 07:18:39;;;;;;;0.98;0.98;;;24.30;32.30;;;;;;5227145;28;20036;-71
2023/07/14 07:21:12;;;;;;;1.10;0.83;;;24.50;1.00;;;;;;5227064;28;20028;-71
2023/07/14 07:23:44;;;;;;;1.42;1.30;;;24.80;1.00;;;;;;5245496;28;20021;-71
2023/07/14 07:26:15;;;;;;;1.58;0.82;;;24.70;1.00;;;;;;5249604;28;20028;-71
2023/07/14 07:28:46;;;;;;;2.63;1.10;;;24.50;1.00;;;;;;5220750;28;20343;-71
2023/07/14 07:31:21;;;;;;;1.95;1.70;;;24.60;1.00;;;;;;5249702;28;20028;-70
2023/07/14 07:33:53;;;;;;;1.88;1.10;;;24.50;1.00;;;;;;5225783;28;20306;-71
2023/07/14 07:36:27;;;;;;;1.80;1.30;;;24.70;1.00;;;;;;5221831;28;20031;-71
2023/07/14 07:39:01;;;;;;;1.30;1.10;;;24.70;1.00;;;;;;5224453;28;20037;-70
2023/07/14 07:41:36;;;;;;;1.23;1.10;;;25.10;1.00;;;;;;5207121;28;20029;-70
2023/07/14 07:44:08;;;;;;;1.77;1.10;;;25.20;1.00;;;;;;5210954;28;20032;-71
2023/07/14 07:46:47;;;;;;;4.13;1.15;;;25.30;1.00;;;;;;5242646;28;20025;-70
2023/07/14 07:49:20;;;;;;;1.27;1.17;;;25.30;1.00;;;;;;5209876;28;20195;-71
2023/07/14 07:51:55;;;;;;;0.90;0.90;;;25.50;1.00;;;;;;5209373;28;20036;-71
2023/07/14 07:54:27;;;;;;;1.02;0.93;;;25.70;99.90;;;;;;5244322;28;20256;-70
2023/07/14 07:57:01;;;;;;;2.17;1.25;;;25.80;1.00;;;;;;5226697;28;20419;-70
2023/07/14 07:59:35;;;;;;;4.40;1.23;;;25.90;1.00;;;;;;5226655;28;20043;-70
2023/07/14 08:02:07;;;;;;;3.63;1.13;;;25.90;1.00;;;;;;5209400;28;20044;-70
2023/07/14 08:04:41;;;;;;;1.10;1.00;;;26.40;1.00;;;;;;5244661;28;20115;-71
2023/07/14 08:07:13;;;;;;;1.55;1.00;;;26.50;1.00;;;;;;5229166;28;20115;-70
2023/07/14 08:09:53;;;;;;;1.52;0.93;;;26.30;1.00;;;;;;5209996;28;20027;-70
2023/07/14 08:12:25;;;;;;;2.58;0.98;;;26.60;97.70;;;;;;5221957;28;20035;-71
2023/07/14 08:14:59;;;;;;;1.08;0.95;;;26.60;1.00;;;;;;5230968;28;20028;-70
2023/07/14 08:17:31;;;;;;;1.50;0.90;;;26.40;1.00;;;;;;5218575;28;20033;-70
2023/07/14 08:20:07;;;;;;;1.02;0.90;;;26.60;1.00;;;;;;5219416;28;20063;-70
2023/07/14 08:22:40;;;;;;;1.40;1.30;;;27.10;1.00;;;;;;5226658;28;20043;-70
2023/07/14 08:25:16;;;;;;;1.67;1.00;;;27.20;1.00;;;;;;5210334;28;20044;-71
2023/07/14 08:27:49;;;;;;;1.33;0.90;;;26.70;99.90;;;;;;5242674;28;20032;-72
2023/07/14 08:30:22;;;;;;;2.33;1.00;;;26.80;99.90;;;;;;5222929;28;20040;-71
2023/07/14 08:32:56;;;;;;;1.13;0.90;;;27.10;99.90;;;;;;5211069;28;20036;-71
2023/07/14 08:35:27;;;;;;;0.88;0.88;;;27.30;99.90;;;;;;5222852;28;20040;-71
2023/07/14 08:38:02;;;;;;;1.83;1.05;;;27.30;99.90;;;;;;5204895;28;20036;-71
2023/07/14 08:40:44;;;;;;;1.60;1.10;;;27.80;1.00;;;;;;5205982;28;20054;-71
2023/07/14 08:43:38;;;;;;;1.20;1.00;;;27.80;99.90;;;;;;5225407;28;20032;-72
2023/07/14 08:46:12;;;;;;;1.85;1.15;;;27.80;99.90;;;;;;5222531;28;20028;-70
2023/07/14 08:48:54;;;;;;;1.20;0.88;;;27.70;1.00;;;;;;5226123;28;20055;-70
2023/07/14 08:51:36;;;;;;;0.90;0.90;;;28.10;99.90;;;;;;5226128;28;20340;-70
2023/07/14 08:54:16;;;;;;;2.30;1.45;;;28.60;99.90;;;;;;5244531;28;20036;-71
2023/07/14 08:56:49;;;;;;;1.05;0.85;;;28.60;99.90;;;;;;5225127;28;20252;-70
2023/07/14 08:59:36;;;;;;;4.88;1.20;;;28.70;99.90;;;;;;5225327;28;20040;-71
2023/07/14 09:02:35;;;;;;;0.80;0.80;;;28.20;99.90;;;;;;5238060;28;20028;-71
2023/07/14 09:05:18;;;;;;;1.55;1.45;;;29.30;99.90;;;;;;5222926;28;20229;-70
2023/07/14 09:07:51;;;;;;;1.35;1.00;;;29.50;99.90;;;;;;5243072;28;20038;-71
2023/07/14 09:10:55;;;;;;;1.38;1.00;;;29.40;1.00;;;;;;5225368;28;20260;-71
2023/07/14 09:13:45;;;;;;;1.42;1.17;;;29.50;1.00;;;;;;5211704;28;20040;-70
2023/07/14 09:16:23;;;;;;;1.83;1.00;;;30.30;1.00;;;;;;5240209;28;20197;-70
2023/07/14 09:19:19;;;;;;;1.33;1.02;;;30.90;1.00;;;;;;5225800;28;20036;-70
2023/07/14 09:22:21;;;;;;;1.20;1.10;;;31.50;1.00;;;;;;5225498;28;20351;-69
2023/07/14 09:25:26;;;;;;;5.90;1.95;;;31.70;1.00;;;;;;5243567;28;20024;-70
2023/07/14 09:27:58;;;;;;;1.98;1.02;;;31.70;1.00;;;;;;5209339;28;20349;-71
2023/07/14 09:30:30;;;;;;;1.45;1.00;;;31.40;1.00;;;;;;5222207;28;20367;-70
2023/07/14 09:33:06;;;;;;;1.65;1.55;;;31.60;1.00;;;;;;5230928;28;20368;-72
2023/07/14 09:35:45;;;;;;;0.90;0.70;;;31.90;52.40;;;;;;5242816;28;20312;-70
2023/07/14 09:38:53;;;;;;;1.05;0.90;;;32.20;1.00;;;;;;5222283;28;20042;-70
2023/07/14 09:41:28;;;;;;;4.90;1.60;;;31.90;99.90;;;;;;5202115;28;20218;-70
2023/07/14 09:44:00;;;;;;;1.63;1.05;;;31.70;1.00;;;;;;5204912;28;20024;-70
2023/07/14 09:46:39;;;;;;;1.20;1.08;;;32.10;99.90;;;;;;5214344;28;20036;-71
2023/07/14 09:49:41;;;;;;;1.45;0.90;;;31.80;1.00;;;;;;5220301;28;20314;-71
2023/07/14 09:52:25;;;;;;;1.30;1.10;;;32.30;1.00;;;;;;5204589;28;20286;-70
2023/07/14 09:54:58;;;;;;;1.17;0.98;;;32.80;1.00;;;;;;5203777;28;20324;-69
2023/07/14 09:57:44;;;;;;;3.80;1.37;;;33.50;1.00;;;;;;5233868;28;20035;-70
2023/07/14 10:00:28;;;;;;;1.38;0.98;;;33.70;1.00;;;;;;5238394;28;20024;-71
2023/07/14 10:03:09;;;;;;;1.10;1.00;;;34.00;1.00;;;;;;5243687;28;20032;-73
2023/07/14 10:05:51;;;;;;;2.80;1.17;;;33.90;99.90;;;;;;5225415;28;20497;-70
2023/07/14 10:08:35;;;;;;;0.95;0.85;;;33.70;99.90;;;;;;5243469;28;20027;-71
2023/07/14 10:11:24;;;;;;;2.17;1.50;;;32.60;99.90;;;;;;5225437;28;20036;-69
2023/07/14 10:14:05;;;;;;;0.93;0.85;;;32.40;1.00;;;;;;5242304;28;20046;-69
2023/07/14 10:16:48;;;;;;;1.25;1.13;;;32.30;99.90;;;;;;5218969;28;20028;-70
2023/07/14 10:19:21;;;;;;;1.35;1.02;;;33.00;1.00;;;;;;5225341;28;21798;-73
2023/07/14 10:22:13;;;;;;;1.20;0.90;;;33.20;99.90;;;;;;5207942;28;20340;-70
2023/07/14 10:24:51;;;;;;;1.40;0.88;;;34.20;99.90;;;;;;5224967;28;20042;-72
2023/07/14 10:27:28;;;;;;;2.05;0.90;;;34.40;99.90;;;;;;5240567;28;20309;-72
2023/07/14 10:30:06;;;;;;;1.10;1.00;;;35.60;1.00;;;;;;5241254;28;20041;-72
2023/07/14 10:32:53;;;;;;;1.10;1.00;;;35.20;99.90;;;;;;5230547;28;20300;-72
2023/07/14 10:35:30;;;;;;;1.00;1.00;;;35.20;1.00;;;;;;5207973;28;20335;-72
2023/07/14 10:38:27;;;;;;;1.60;1.20;;;35.80;99.90;;;;;;5221124;28;20361;-74
2023/07/14 10:41:09;;;;;;;2.70;1.25;;;36.50;99.90;;;;;;5222088;28;20040;-71
2023/07/14 10:44:00;;;;;;;1.33;1.23;;;36.90;1.00;;;;;;5207241;28;20314;-72
2023/07/14 10:46:37;;;;;;;1.10;1.00;;;36.60;1.00;;;;;;5219654;28;20025;-71
2023/07/14 10:49:39;;;;;;;1.42;1.00;;;37.20;99.90;;;;;;5204344;28;20028;-71
2023/07/14 10:52:37;;;;;;;1.30;1.20;;;38.20;1.00;;;;;;5207891;28;20226;-72
2023/07/14 10:55:40;;;;;;;1.20;1.10;;;39.20;1.00;;;;;;5235778;28;20040;-72
2023/07/14 10:58:18;;;;;;;1.45;1.35;;;39.70;1.00;;;;;;5162604;28;20057;-73
2023/07/14 11:01:06;;;;;;;0.93;0.90;;;40.80;1.00;;;;;;5156096;28;20365;-73
2023/07/14 11:04:12;;;;;;;1.00;1.00;;;41.30;1.00;;;;;;5160621;28;20396;-70
2023/07/14 11:06:47;;;;;;;1.35;1.13;;;42.10;1.00;;;;;;5141363;28;20228;-71
2023/07/14 11:09:19;;;;;;;1.23;1.13;;;41.10;1.00;;;;;;5142369;28;20041;-72
2023/07/14 11:11:54;;;;;;;1.50;1.27;;;40.50;1.00;;;;;;5163006;28;20319;-72
2023/07/14 11:14:51;;;;;;;1.30;1.20;;;40.80;1.00;;;;;;5169685;28;20027;-72
2023/07/14 11:17:46;;;;;;;1.77;1.27;;;41.40;1.00;;;;;;5148773;28;20050;-72
2023/07/14 11:20:26;;;;;;;1.38;1.27;;;42.10;1.00;;;;;;5159911;28;20038;-70
2023/07/14 11:23:25;;;;;;;1.42;1.33;;;42.80;1.00;;;;;;5177945;28;20037;-72
2023/07/14 11:25:59;;;;;;;1.17;1.13;;;42.20;1.00;;;;;;5181397;28;20065;-72
2023/07/14 11:28:51;;;;;;;2.05;1.40;;;39.50;1.00;;;;;;5145669;28;20030;-73
2023/07/14 11:31:28;;;;;;;1.70;1.60;;;39.70;1.00;;;;;;5142029;28;20034;-71
2023/07/14 11:34:02;;;;;;;1.20;1.10;;;39.60;1.00;;;;;;5166294;28;20040;-73
2023/07/14 11:36:43;;;;;;;1.33;1.23;;;39.60;1.00;;;;;;5209457;28;20034;-72
2023/07/14 11:39:39;;;;;;;1.48;1.38;;;40.30;1.00;;;;;;5212648;28;20044;-74
2023/07/14 11:42:32;;;;;;;2.13;1.27;;;41.00;1.00;;;;;;5228867;28;20020;-72
2023/07/14 11:45:20;;;;;;;1.42;1.33;;;41.90;1.00;;;;;;5223089;28;20203;-73
2023/07/14 11:47:55;;;;;;;1.98;1.30;;;42.00;1.00;;;;;;5208109;28;20032;-74
2023/07/14 11:50:30;;;;;;;2.25;1.50;;;42.10;1.00;;;;;;5226429;28;20021;-72
2023/07/14 11:53:14;;;;;;;1.55;1.42;;;41.60;1.00;;;;;;5231512;28;20032;-72
2023/07/14 11:55:52;;;;;;;1.40;1.30;;;41.00;1.00;;;;;;5212036;28;20048;-73
2023/07/14 11:58:27;;;;;;;1.50;1.35;;;41.30;1.00;;;;;;5227733;28;20036;-73
2023/07/14 12:01:17;;;;;;;1.38;1.20;;;41.80;1.00;;;;;;5228834;28;20024;-74
2023/07/14 12:04:25;;;;;;;1.80;1.50;;;41.20;1.00;;;;;;5225107;28;20043;-72
2023/07/14 12:07:19;;;;;;;1.55;1.45;;;40.00;1.00;;;;;;5227026;28;20522;-73
2023/07/14 12:10:12;;;;;;;1.58;1.40;;;39.00;1.00;;;;;;5246325;28;20027;-72
2023/07/14 12:13:22;;;;;;;1.30;1.20;;;39.40;1.00;;;;;;5246169;28;20040;-73
2023/07/14 12:16:00;;;;;;;1.65;1.35;;;40.80;1.00;;;;;;5244316;28;20055;-73
2023/07/14 12:18:35;;;;;;;1.42;1.30;;;39.70;1.00;;;;;;5210099;28;20054;-74
2023/07/14 12:21:18;;;;;;;1.23;1.13;;;40.50;1.00;;;;;;5227440;28;20381;-72
2023/07/14 12:23:59;;;;;;;1.23;0.93;;;39.70;1.00;;;;;;5227714;28;20035;-72
2023/07/14 12:26:39;;;;;;;1.58;1.20;;;39.10;1.00;;;;;;5211217;28;20039;-74
2023/07/14 12:29:17;;;;;;;1.50;1.20;;;39.90;1.00;;;;;;5210826;28;20026;-73
2023/07/14 12:31:57;;;;;;;1.73;1.13;;;39.60;1.00;;;;;;5230176;28;20526;-74
2023/07/14 12:34:35;;;;;;;1.40;1.25;;;39.70;1.00;;;;;;5209953;28;20032;-72
2023/07/14 12:37:22;;;;;;;1.20;1.08;;;40.60;1.00;;;;;;5210187;28;20035;-73
2023/07/14 12:39:55;;;;;;;3.65;1.30;;;41.20;1.00;;;;;;5229237;28;20054;-71
2023/07/14 12:42:41;;;;;;;1.50;1.40;;;40.80;1.00;;;;;;5228121;28;20063;-74
2023/07/14 12:45:16;;;;;;;1.50;1.30;;;41.00;1.00;;;;;;5226313;28;20318;-74
2023/07/14 12:47:52;;;;;;;1.25;1.13;;;42.00;1.00;;;;;;5227977;28;20043;-72
2023/07/14 12:50:26;;;;;;;1.95;1.13;;;42.80;1.00;;;;;;5245347;28;20043;-73
2023/07/14 12:53:03;;;;;;;2.35;1.38;;;42.80;1.00;;;;;;5227563;28;20043;-73
2023/07/14 12:55:37;;;;;;;1.25;1.15;;;43.00;1.00;;;;;;5245182;28;20243;-73
2023/07/14 12:58:22;;;;;;;2.75;1.60;;;43.40;1.00;;;;;;5242992;28;20321;-72
2023/07/14 13:00:56;;;;;;;1.55;1.40;;;40.90;1.00;;;;;;5224017;28;20029;-75
2023/07/14 13:03:27;;;;;;;1.42;0.90;;;40.70;1.00;;;;;;5208405;28;20037;-72
2023/07/14 13:05:59;;;;;;;1.40;1.27;;;40.10;1.00;;;;;;5221193;28;20512;-73
2023/07/14 13:08:31;;;;;;;2.03;1.65;;;40.00;1.00;;;;;;5226425;28;20048;-72
2023/07/14 13:11:08;;;;;;;2.00;1.13;;;40.30;1.00;;;;;;5227021;28;20031;-72
2023/07/14 13:13:42;;;;;;;1.23;1.13;;;40.10;1.00;;;;;;5228460;28;20035;-73
2023/07/14 13:16:15;;;;;;;1.42;1.33;;;40.60;1.00;;;;;;5207909;28;20044;-74
2023/07/14 13:18:58;;;;;;;1.00;1.00;;;41.10;1.00;;;;;;5198777;28;20047;-73
2023/07/14 13:21:46;;;;;;;1.30;1.17;;;41.50;1.00;;;;;;5240337;28;20036;-72
2023/07/14 13:24:31;;;;;;;1.58;1.48;;;42.00;1.00;;;;;;5209439;28;20029;-73
2023/07/14 13:27:20;;;;;;;1.45;1.35;;;42.90;1.00;;;;;;5211209;28;20366;-72
2023/07/14 13:30:23;;;;;;;1.60;1.30;;;42.00;1.00;;;;;;5210318;28;20023;-74
2023/07/14 13:32:56;;;;;;;1.50;1.40;;;41.20;1.00;;;;;;5232140;28;20230;-74
2023/07/14 13:35:36;;;;;;;1.20;1.10;;;38.90;1.00;;;;;;5210468;28;20252;-74
2023/07/14 13:38:14;;;;;;;1.27;1.13;;;37.70;1.00;;;;;;5226293;28;20027;-75
2023/07/14 13:40:51;;;;;;;1.50;1.40;;;37.60;1.00;;;;;;5226129;28;20030;-74
2023/07/14 13:43:25;;;;;;;1.30;1.20;;;38.60;1.00;;;;;;5227082;28;20221;-74
2023/07/14 13:46:29;;;;;;;1.33;1.10;;;40.20;1.00;;;;;;5225243;28;20036;-74
2023/07/14 13:49:07;;;;;;;;;;;39.40;1.00;;;;;;5206947;28;20032;-72
2023/07/14 13:51:39;;;;;;;1.67;1.40;;;39.60;1.00;;;;;;5206833;28;20121;-73